sensor_id;sensor_type;location;lat;lon;timestamp;pressure;altitude;pressure_sealevel;temperature;humidity
64698;BME280;51124;53.394;-6.294;2024-01-06T00:00:33;100782.37;;;16.95;14.66
64698;BME280;51124;53.394;-6.294;2024-01-06T00:03:01;100787.11;;;16.43;15.10
64698;BME280;51124;53.394;-6.294;2024-01-06T00:05:29;100786.49;;;16.75;14.85
64698;BME280;51124;53.394;-6.294;2024-01-06T00:07:57;100791.33;;;16.43;15.47
64698;BME280;51124;53.394;-6.294;2024-01-06T00:10:25;100792.60;;;17.11;15.37
64698;BME280;51124;53.394;-6.294;2024-01-06T00:12:53;100788.64;;;17.17;15.09
64698;BME280;51124;53.394;-6.294;2024-01-06T00:15:21;100797.25;;;16.65;15.26
64698;BME280;51124;53.394;-6.294;2024-01-06T00:17:49;100796.82;;;15.88;15.46
64698;BME280;51124;53.394;-6.294;2024-01-06T00:20:17;100797.67;;;16.19;15.45
64698;BME280;51124;53.394;-6.294;2024-01-06T00:22:45;100800.40;;;16.49;15.39
64698;BME280;51124;53.394;-6.294;2024-01-06T00:25:13;100802.40;;;16.85;15.24
64698;BME280;51124;53.394;-6.294;2024-01-06T00:27:41;100810.47;;;15.88;15.53
64698;BME280;51124;53.394;-6.294;2024-01-06T00:30:09;100809.81;;;16.39;15.36
64698;BME280;51124;53.394;-6.294;2024-01-06T00:32:38;100813.17;;;16.35;15.28
64698;BME280;51124;53.394;-6.294;2024-01-06T00:35:07;100812.95;;;16.46;15.59
64698;BME280;51124;53.394;-6.294;2024-01-06T00:37:35;100814.60;;;16.77;15.59
64698;BME280;51124;53.394;-6.294;2024-01-06T00:40:03;100815.75;;;16.63;15.58
64698;BME280;51124;53.394;-6.294;2024-01-06T00:42:32;100816.75;;;16.45;15.25
64698;BME280;51124;53.394;-6.294;2024-01-06T00:45:00;100825.39;;;15.30;14.95
64698;BME280;51124;53.394;-6.294;2024-01-06T00:47:29;100827.59;;;14.22;15.18
64698;BME280;51124;53.394;-6.294;2024-01-06T00:49:57;100830.02;;;14.52;14.56
64698;BME280;51124;53.394;-6.294;2024-01-06T00:52:25;100830.51;;;14.72;14.22
64698;BME280;51124;53.394;-6.294;2024-01-06T00:54:53;100834.03;;;14.09;14.29
64698;BME280;51124;53.394;-6.294;2024-01-06T00:57:21;100835.20;;;15.06;14.13
64698;BME280;51124;53.394;-6.294;2024-01-06T00:59:50;100835.23;;;14.70;13.95
64698;BME280;51124;53.394;-6.294;2024-01-06T01:02:17;100839.76;;;14.36;13.73
64698;BME280;51124;53.394;-6.294;2024-01-06T01:04:46;100837.63;;;15.06;13.54
64698;BME280;51124;53.394;-6.294;2024-01-06T01:07:14;100841.34;;;14.75;13.70
64698;BME280;51124;53.394;-6.294;2024-01-06T01:09:41;100844.31;;;14.49;13.36
64698;BME280;51124;53.394;-6.294;2024-01-06T01:12:09;100849.52;;;13.76;13.20
64698;BME280;51124;53.394;-6.294;2024-01-06T01:14:37;100852.32;;;14.00;13.10
64698;BME280;51124;53.394;-6.294;2024-01-06T01:17:05;100858.30;;;13.08;13.28
64698;BME280;51124;53.394;-6.294;2024-01-06T01:19:32;100857.36;;;13.93;13.23
64698;BME280;51124;53.394;-6.294;2024-01-06T01:21:59;100859.62;;;14.47;13.18
64698;BME280;51124;53.394;-6.294;2024-01-06T01:24:27;100862.61;;;13.96;13.19
64698;BME280;51124;53.394;-6.294;2024-01-06T01:26:55;100856.93;;;14.64;12.89
64698;BME280;51124;53.394;-6.294;2024-01-06T01:29:22;100859.82;;;13.91;12.84
64698;BME280;51124;53.394;-6.294;2024-01-06T01:31:50;100866.23;;;14.15;12.88
64698;BME280;51124;53.394;-6.294;2024-01-06T01:34:17;100866.25;;;13.65;12.64
64698;BME280;51124;53.394;-6.294;2024-01-06T01:36:45;100865.65;;;13.94;12.81
64698;BME280;51124;53.394;-6.294;2024-01-06T01:39:13;100865.32;;;13.81;12.75
64698;BME280;51124;53.394;-6.294;2024-01-06T01:41:41;100868.63;;;14.28;12.76
64698;BME280;51124;53.394;-6.294;2024-01-06T01:44:09;100872.68;;;13.99;12.71
64698;BME280;51124;53.394;-6.294;2024-01-06T01:46:37;100876.12;;;14.09;12.74
64698;BME280;51124;53.394;-6.294;2024-01-06T01:49:05;100882.34;;;14.15;12.37
64698;BME280;51124;53.394;-6.294;2024-01-06T01:51:35;100882.75;;;13.49;12.47
64698;BME280;51124;53.394;-6.294;2024-01-06T01:54:04;100879.16;;;13.91;12.65
64698;BME280;51124;53.394;-6.294;2024-01-06T01:56:33;100880.41;;;14.25;12.34
64698;BME280;51124;53.394;-6.294;2024-01-06T01:59:05;100885.39;;;14.23;12.66
64698;BME280;51124;53.394;-6.294;2024-01-06T02:01:34;100884.81;;;14.28;12.59
64698;BME280;51124;53.394;-6.294;2024-01-06T02:04:02;100884.29;;;13.81;12.66
64698;BME280;51124;53.394;-6.294;2024-01-06T02:06:31;100890.54;;;14.08;12.74
64698;BME280;51124;53.394;-6.294;2024-01-06T02:09:00;100896.03;;;13.65;12.62
64698;BME280;51124;53.394;-6.294;2024-01-06T02:11:28;100893.78;;;14.39;12.54
64698;BME280;51124;53.394;-6.294;2024-01-06T02:13:56;100903.99;;;14.35;12.81
64698;BME280;51124;53.394;-6.294;2024-01-06T02:16:25;100907.43;;;13.60;12.90
64698;BME280;51124;53.394;-6.294;2024-01-06T02:18:53;100903.45;;;13.64;12.61
64698;BME280;51124;53.394;-6.294;2024-01-06T02:21:22;100905.33;;;13.87;12.43
64698;BME280;51124;53.394;-6.294;2024-01-06T02:23:51;100917.60;;;14.59;12.77
64698;BME280;51124;53.394;-6.294;2024-01-06T02:26:19;100920.70;;;15.22;12.78
64698;BME280;51124;53.394;-6.294;2024-01-06T02:28:47;100921.12;;;14.45;12.78
64698;BME280;51124;53.394;-6.294;2024-01-06T02:31:15;100923.88;;;13.58;12.81
64698;BME280;51124;53.394;-6.294;2024-01-06T02:33:43;100925.62;;;14.30;12.52
64698;BME280;51124;53.394;-6.294;2024-01-06T02:36:11;100931.44;;;13.71;12.82
64698;BME280;51124;53.394;-6.294;2024-01-06T02:38:40;100940.54;;;14.42;12.67
64698;BME280;51124;53.394;-6.294;2024-01-06T02:41:07;100939.77;;;14.23;12.74
64698;BME280;51124;53.394;-6.294;2024-01-06T02:43:35;100944.60;;;14.50;12.64
64698;BME280;51124;53.394;-6.294;2024-01-06T02:46:02;100946.06;;;14.07;12.46
64698;BME280;51124;53.394;-6.294;2024-01-06T02:48:30;100947.06;;;13.32;12.56
64698;BME280;51124;53.394;-6.294;2024-01-06T02:50:57;100951.54;;;13.61;12.47
64698;BME280;51124;53.394;-6.294;2024-01-06T02:53:25;100954.69;;;13.41;12.48
64698;BME280;51124;53.394;-6.294;2024-01-06T02:55:52;100957.63;;;14.94;12.41
64698;BME280;51124;53.394;-6.294;2024-01-06T02:58:20;100959.42;;;15.84;12.79
64698;BME280;51124;53.394;-6.294;2024-01-06T03:00:48;100960.60;;;16.12;13.22
64698;BME280;51124;53.394;-6.294;2024-01-06T03:03:16;100960.01;;;14.49;13.44
64698;BME280;51124;53.394;-6.294;2024-01-06T03:05:43;100960.99;;;14.31;13.51
64698;BME280;51124;53.394;-6.294;2024-01-06T03:08:10;100967.09;;;16.97;13.63
64698;BME280;51124;53.394;-6.294;2024-01-06T03:10:38;100964.15;;;16.47;13.96
64698;BME280;51124;53.394;-6.294;2024-01-06T03:13:05;100967.81;;;16.90;14.50
64698;BME280;51124;53.394;-6.294;2024-01-06T03:15:33;100972.70;;;16.68;14.41
64698;BME280;51124;53.394;-6.294;2024-01-06T03:18:01;100978.69;;;15.62;14.87
64698;BME280;51124;53.394;-6.294;2024-01-06T03:20:28;100970.05;;;16.36;14.83
64698;BME280;51124;53.394;-6.294;2024-01-06T03:22:56;100976.36;;;16.40;14.94
64698;BME280;51124;53.394;-6.294;2024-01-06T03:25:24;100973.29;;;16.05;14.96
64698;BME280;51124;53.394;-6.294;2024-01-06T03:27:51;100971.96;;;16.07;14.89
64698;BME280;51124;53.394;-6.294;2024-01-06T03:30:18;100973.29;;;16.08;14.93
64698;BME280;51124;53.394;-6.294;2024-01-06T03:32:46;100968.13;;;16.18;14.86
64698;BME280;51124;53.394;-6.294;2024-01-06T03:35:14;100968.42;;;16.27;14.95
64698;BME280;51124;53.394;-6.294;2024-01-06T03:37:41;100973.95;;;16.13;15.03
64698;BME280;51124;53.394;-6.294;2024-01-06T03:40:10;100975.29;;;15.53;14.97
64698;BME280;51124;53.394;-6.294;2024-01-06T03:42:38;100977.14;;;16.07;15.06
64698;BME280;51124;53.394;-6.294;2024-01-06T03:45:06;100975.28;;;16.45;15.01
64698;BME280;51124;53.394;-6.294;2024-01-06T03:47:34;100980.56;;;15.88;14.96
64698;BME280;51124;53.394;-6.294;2024-01-06T03:50:02;100978.22;;;15.58;15.22
64698;BME280;51124;53.394;-6.294;2024-01-06T03:52:29;100977.77;;;16.32;14.92
64698;BME280;51124;53.394;-6.294;2024-01-06T03:54:56;100981.77;;;14.78;15.19
64698;BME280;51124;53.394;-6.294;2024-01-06T03:57:24;100982.42;;;15.83;15.04
64698;BME280;51124;53.394;-6.294;2024-01-06T03:59:52;100983.05;;;14.53;15.10
64698;BME280;51124;53.394;-6.294;2024-01-06T04:02:20;100981.44;;;14.02;14.51
64698;BME280;51124;53.394;-6.294;2024-01-06T04:04:47;100986.32;;;13.99;14.29
64698;BME280;51124;53.394;-6.294;2024-01-06T04:07:15;100983.69;;;14.09;13.77
64698;BME280;51124;53.394;-6.294;2024-01-06T04:09:44;100981.97;;;14.15;13.74
64698;BME280;51124;53.394;-6.294;2024-01-06T04:12:13;100987.49;;;14.33;13.26
64698;BME280;51124;53.394;-6.294;2024-01-06T04:14:43;100995.64;;;12.86;13.38
64698;BME280;51124;53.394;-6.294;2024-01-06T04:17:10;100997.95;;;13.83;13.01
64698;BME280;51124;53.394;-6.294;2024-01-06T04:19:38;101005.93;;;14.07;13.01
64698;BME280;51124;53.394;-6.294;2024-01-06T04:22:05;101001.15;;;13.71;12.72
64698;BME280;51124;53.394;-6.294;2024-01-06T04:24:36;101007.67;;;12.67;13.10
64698;BME280;51124;53.394;-6.294;2024-01-06T04:27:04;101008.22;;;13.83;12.91
64698;BME280;51124;53.394;-6.294;2024-01-06T04:29:32;101007.20;;;13.45;12.66
64698;BME280;51124;53.394;-6.294;2024-01-06T04:31:59;101005.42;;;12.86;12.61
64698;BME280;51124;53.394;-6.294;2024-01-06T04:34:27;101000.47;;;14.12;12.50
64698;BME280;51124;53.394;-6.294;2024-01-06T04:36:54;101006.73;;;12.90;12.76
64698;BME280;51124;53.394;-6.294;2024-01-06T04:39:22;101012.15;;;13.81;12.39
64698;BME280;51124;53.394;-6.294;2024-01-06T04:41:49;101018.56;;;13.37;12.59
64698;BME280;51124;53.394;-6.294;2024-01-06T04:44:19;101025.82;;;13.05;12.43
64698;BME280;51124;53.394;-6.294;2024-01-06T04:46:47;101026.49;;;13.73;12.39
64698;BME280;51124;53.394;-6.294;2024-01-06T04:49:14;101031.54;;;13.26;12.33
64698;BME280;51124;53.394;-6.294;2024-01-06T04:51:41;101032.25;;;13.49;12.39
64698;BME280;51124;53.394;-6.294;2024-01-06T04:54:09;101037.83;;;13.46;12.31
64698;BME280;51124;53.394;-6.294;2024-01-06T04:56:36;101040.24;;;13.61;12.26
64698;BME280;51124;53.394;-6.294;2024-01-06T04:59:04;101039.74;;;12.92;12.46
64698;BME280;51124;53.394;-6.294;2024-01-06T05:01:31;101044.56;;;12.86;12.23
64698;BME280;51124;53.394;-6.294;2024-01-06T05:03:59;101048.36;;;13.16;12.33
64698;BME280;51124;53.394;-6.294;2024-01-06T05:06:26;101050.13;;;13.18;12.34
64698;BME280;51124;53.394;-6.294;2024-01-06T05:08:54;101052.42;;;13.75;12.22
64698;BME280;51124;53.394;-6.294;2024-01-06T05:11:21;101049.30;;;13.58;12.38
64698;BME280;51124;53.394;-6.294;2024-01-06T05:13:48;101050.46;;;13.21;12.34
64698;BME280;51124;53.394;-6.294;2024-01-06T05:16:16;101053.69;;;12.99;12.26
64698;BME280;51124;53.394;-6.294;2024-01-06T05:18:43;101056.47;;;14.15;12.02
64698;BME280;51124;53.394;-6.294;2024-01-06T05:21:11;101056.87;;;13.86;12.19
64698;BME280;51124;53.394;-6.294;2024-01-06T05:23:38;101058.31;;;13.03;12.23
64698;BME280;51124;53.394;-6.294;2024-01-06T05:26:06;101055.08;;;12.00;12.24
64698;BME280;51124;53.394;-6.294;2024-01-06T05:28:33;101054.36;;;13.34;12.02
64698;BME280;51124;53.394;-6.294;2024-01-06T05:31:01;101058.99;;;14.08;12.13
64698;BME280;51124;53.394;-6.294;2024-01-06T05:33:28;101061.84;;;12.79;12.16
64698;BME280;51124;53.394;-6.294;2024-01-06T05:35:56;101069.09;;;14.38;12.13
64698;BME280;51124;53.394;-6.294;2024-01-06T05:38:23;101074.09;;;13.31;12.18
64698;BME280;51124;53.394;-6.294;2024-01-06T05:40:50;101071.98;;;12.55;12.26
64698;BME280;51124;53.394;-6.294;2024-01-06T05:43:18;101075.77;;;13.54;12.26
64698;BME280;51124;53.394;-6.294;2024-01-06T05:45:45;101076.11;;;12.90;12.31
64698;BME280;51124;53.394;-6.294;2024-01-06T05:48:13;101084.97;;;13.27;12.17
64698;BME280;51124;53.394;-6.294;2024-01-06T05:50:40;101083.55;;;13.15;12.34
64698;BME280;51124;53.394;-6.294;2024-01-06T05:53:08;101083.50;;;13.75;12.02
64698;BME280;51124;53.394;-6.294;2024-01-06T05:55:35;101082.21;;;13.00;12.26
64698;BME280;51124;53.394;-6.294;2024-01-06T05:58:03;101083.74;;;12.76;12.20
64698;BME280;51124;53.394;-6.294;2024-01-06T06:00:30;101088.27;;;12.64;12.10
64698;BME280;51124;53.394;-6.294;2024-01-06T06:02:57;101093.67;;;13.55;12.17
64698;BME280;51124;53.394;-6.294;2024-01-06T06:05:25;101094.65;;;15.10;12.18
64698;BME280;51124;53.394;-6.294;2024-01-06T06:07:53;101092.23;;;15.28;12.91
64698;BME280;51124;53.394;-6.294;2024-01-06T06:10:20;101095.12;;;14.74;13.20
64698;BME280;51124;53.394;-6.294;2024-01-06T06:12:48;101099.85;;;12.91;13.09
64698;BME280;51124;53.394;-6.294;2024-01-06T06:15:15;101098.30;;;14.55;12.96
64698;BME280;51124;53.394;-6.294;2024-01-06T06:17:43;101104.29;;;15.79;13.55
64698;BME280;51124;53.394;-6.294;2024-01-06T06:20:11;101111.81;;;15.73;13.81
64698;BME280;51124;53.394;-6.294;2024-01-06T06:22:38;101112.65;;;16.11;13.99
64698;BME280;51124;53.394;-6.294;2024-01-06T06:25:07;101120.75;;;15.77;14.27
64698;BME280;51124;53.394;-6.294;2024-01-06T06:27:34;101126.45;;;15.86;14.32
64698;BME280;51124;53.394;-6.294;2024-01-06T06:30:02;101129.22;;;15.76;14.18
64698;BME280;51124;53.394;-6.294;2024-01-06T06:32:30;101132.39;;;15.83;14.37
64698;BME280;51124;53.394;-6.294;2024-01-06T06:34:57;101143.73;;;14.91;14.79
64698;BME280;51124;53.394;-6.294;2024-01-06T06:37:25;101145.53;;;15.43;14.65
64698;BME280;51124;53.394;-6.294;2024-01-06T06:39:53;101148.24;;;15.04;14.74
64698;BME280;51124;53.394;-6.294;2024-01-06T06:42:21;101154.59;;;15.56;14.64
64698;BME280;51124;53.394;-6.294;2024-01-06T06:44:48;101157.30;;;15.00;14.74
64698;BME280;51124;53.394;-6.294;2024-01-06T06:47:16;101157.66;;;15.31;14.71
64698;BME280;51124;53.394;-6.294;2024-01-06T06:49:44;101162.56;;;15.58;14.36
64698;BME280;51124;53.394;-6.294;2024-01-06T06:52:11;101162.55;;;15.26;14.84
64698;BME280;51124;53.394;-6.294;2024-01-06T06:54:39;101175.27;;;14.66;14.83
64698;BME280;51124;53.394;-6.294;2024-01-06T06:57:06;101176.54;;;14.98;14.75
64698;BME280;51124;53.394;-6.294;2024-01-06T06:59:34;101186.75;;;15.73;14.90
64698;BME280;51124;53.394;-6.294;2024-01-06T07:02:02;101190.60;;;15.62;14.77
64698;BME280;51124;53.394;-6.294;2024-01-06T07:04:29;101188.89;;;15.59;14.67
64698;BME280;51124;53.394;-6.294;2024-01-06T07:06:57;101189.30;;;14.66;14.62
64698;BME280;51124;53.394;-6.294;2024-01-06T07:09:24;101197.25;;;13.81;14.07
64698;BME280;51124;53.394;-6.294;2024-01-06T07:11:52;101193.14;;;14.12;13.57
64698;BME280;51124;53.394;-6.294;2024-01-06T07:14:19;101196.70;;;13.75;13.31
64698;BME280;51124;53.394;-6.294;2024-01-06T07:16:47;101201.44;;;13.98;13.22
64698;BME280;51124;53.394;-6.294;2024-01-06T07:19:15;101200.72;;;13.67;12.90
64698;BME280;51124;53.394;-6.294;2024-01-06T07:21:42;101206.58;;;14.35;13.21
64698;BME280;51124;53.394;-6.294;2024-01-06T07:24:10;101205.22;;;13.12;12.91
64698;BME280;51124;53.394;-6.294;2024-01-06T07:26:37;101211.98;;;12.17;12.82
64698;BME280;51124;53.394;-6.294;2024-01-06T07:29:05;101213.29;;;13.11;12.80
64698;BME280;51124;53.394;-6.294;2024-01-06T07:31:32;101215.37;;;12.98;12.38
64698;BME280;51124;53.394;-6.294;2024-01-06T07:33:59;101220.36;;;13.06;12.49
64698;BME280;51124;53.394;-6.294;2024-01-06T07:36:27;101224.58;;;13.68;12.53
64698;BME280;51124;53.394;-6.294;2024-01-06T07:38:54;101226.06;;;12.63;12.64
64698;BME280;51124;53.394;-6.294;2024-01-06T07:41:23;101228.11;;;12.70;12.55
64698;BME280;51124;53.394;-6.294;2024-01-06T07:43:51;101230.53;;;12.66;12.47
64698;BME280;51124;53.394;-6.294;2024-01-06T07:46:18;101238.42;;;13.32;12.42
64698;BME280;51124;53.394;-6.294;2024-01-06T07:48:46;101231.69;;;13.44;12.05
64698;BME280;51124;53.394;-6.294;2024-01-06T07:51:14;101235.36;;;13.10;11.99
64698;BME280;51124;53.394;-6.294;2024-01-06T07:53:41;101238.83;;;12.27;12.33
64698;BME280;51124;53.394;-6.294;2024-01-06T07:56:08;101239.33;;;13.13;12.29
64698;BME280;51124;53.394;-6.294;2024-01-06T07:58:36;101238.10;;;11.92;12.22
64698;BME280;51124;53.394;-6.294;2024-01-06T08:01:03;101243.09;;;12.29;12.23
64698;BME280;51124;53.394;-6.294;2024-01-06T08:03:31;101237.67;;;13.00;11.78
64698;BME280;51124;53.394;-6.294;2024-01-06T08:05:58;101240.19;;;13.26;11.76
64698;BME280;51124;53.394;-6.294;2024-01-06T08:08:25;101248.04;;;12.74;12.14
64698;BME280;51124;53.394;-6.294;2024-01-06T08:10:53;101255.61;;;12.73;11.69
64698;BME280;51124;53.394;-6.294;2024-01-06T08:13:20;101258.50;;;12.61;12.08
64698;BME280;51124;53.394;-6.294;2024-01-06T08:15:48;101262.71;;;12.72;11.93
64698;BME280;51124;53.394;-6.294;2024-01-06T08:18:15;101267.25;;;12.84;11.77
64698;BME280;51124;53.394;-6.294;2024-01-06T08:20:42;101268.17;;;12.30;12.01
64698;BME280;51124;53.394;-6.294;2024-01-06T08:23:10;101272.81;;;12.74;11.83
64698;BME280;51124;53.394;-6.294;2024-01-06T08:25:37;101277.11;;;12.06;11.92
64698;BME280;51124;53.394;-6.294;2024-01-06T08:28:05;101281.75;;;12.57;12.05
64698;BME280;51124;53.394;-6.294;2024-01-06T08:30:32;101288.43;;;12.46;11.87
64698;BME280;51124;53.394;-6.294;2024-01-06T08:33:00;101294.93;;;13.67;11.90
64698;BME280;51124;53.394;-6.294;2024-01-06T08:35:27;101295.24;;;11.97;11.98
64698;BME280;51124;53.394;-6.294;2024-01-06T08:37:54;101298.72;;;12.76;11.76
64698;BME280;51124;53.394;-6.294;2024-01-06T08:40:22;101308.88;;;13.14;11.99
64698;BME280;51124;53.394;-6.294;2024-01-06T08:42:50;101312.87;;;12.52;11.92
64698;BME280;51124;53.394;-6.294;2024-01-06T08:45:20;101321.61;;;12.15;11.81
64698;BME280;51124;53.394;-6.294;2024-01-06T08:47:48;101325.23;;;12.97;11.91
64698;BME280;51124;53.394;-6.294;2024-01-06T08:50:15;101321.70;;;12.01;12.03
64698;BME280;51124;53.394;-6.294;2024-01-06T08:52:43;101329.73;;;13.31;11.95
64698;BME280;51124;53.394;-6.294;2024-01-06T08:55:10;101338.15;;;12.57;11.93
64698;BME280;51124;53.394;-6.294;2024-01-06T08:57:38;101337.22;;;14.48;11.51
64698;BME280;51124;53.394;-6.294;2024-01-06T09:00:06;101337.94;;;13.08;11.23
64698;BME280;51124;53.394;-6.294;2024-01-06T09:02:34;101336.79;;;13.96;10.76
64698;BME280;51124;53.394;-6.294;2024-01-06T09:05:01;101339.96;;;14.02;10.40
64698;BME280;51124;53.394;-6.294;2024-01-06T09:07:28;101347.38;;;13.56;10.62
64698;BME280;51124;53.394;-6.294;2024-01-06T09:09:56;101350.32;;;12.62;10.68
64698;BME280;51124;53.394;-6.294;2024-01-06T09:12:24;101352.46;;;13.88;10.70
64698;BME280;51124;53.394;-6.294;2024-01-06T09:14:51;101359.00;;;16.32;10.70
64698;BME280;51124;53.394;-6.294;2024-01-06T09:17:19;101365.44;;;16.36;11.38
64698;BME280;51124;53.394;-6.294;2024-01-06T09:19:46;101369.58;;;16.23;11.55
64698;BME280;51124;53.394;-6.294;2024-01-06T09:22:14;101370.26;;;15.60;11.20
64698;BME280;51124;53.394;-6.294;2024-01-06T09:24:41;101370.37;;;15.39;11.39
64698;BME280;51124;53.394;-6.294;2024-01-06T09:27:09;101374.82;;;17.87;11.55
64698;BME280;51124;53.394;-6.294;2024-01-06T09:29:36;101381.18;;;17.49;12.14
64698;BME280;51124;53.394;-6.294;2024-01-06T09:32:05;101385.36;;;18.05;12.22
64698;BME280;51124;53.394;-6.294;2024-01-06T09:34:33;101388.51;;;18.28;12.29
64698;BME280;51124;53.394;-6.294;2024-01-06T09:37:01;101391.82;;;17.41;12.12
64698;BME280;51124;53.394;-6.294;2024-01-06T09:39:29;101399.66;;;17.43;12.65
64698;BME280;51124;53.394;-6.294;2024-01-06T09:41:56;101397.54;;;17.94;12.30
64698;BME280;51124;53.394;-6.294;2024-01-06T09:44:24;101400.92;;;17.91;12.38
64698;BME280;51124;53.394;-6.294;2024-01-06T09:46:53;101405.29;;;18.23;12.07
64698;BME280;51124;53.394;-6.294;2024-01-06T09:49:25;101400.80;;;18.39;11.60
64698;BME280;51124;53.394;-6.294;2024-01-06T09:51:59;101404.08;;;17.88;11.93
64698;BME280;51124;53.394;-6.294;2024-01-06T09:54:28;101408.40;;;17.99;12.06
64698;BME280;51124;53.394;-6.294;2024-01-06T09:57:08;101407.39;;;18.03;11.88
64698;BME280;51124;53.394;-6.294;2024-01-06T09:59:26;101411.01;;;18.32;12.00
64698;BME280;51124;53.394;-6.294;2024-01-06T10:01:54;101413.91;;;18.37;12.12
64698;BME280;51124;53.394;-6.294;2024-01-06T10:04:30;101418.92;;;18.31;12.01
64698;BME280;51124;53.394;-6.294;2024-01-06T10:06:48;101417.53;;;18.12;11.74
64698;BME280;51124;53.394;-6.294;2024-01-06T10:09:22;101417.05;;;18.40;11.85
64698;BME280;51124;53.394;-6.294;2024-01-06T10:11:43;101421.58;;;18.16;12.00
64698;BME280;51124;53.394;-6.294;2024-01-06T10:14:10;101428.29;;;18.03;11.87
64698;BME280;51124;53.394;-6.294;2024-01-06T10:16:39;101427.38;;;17.81;11.82
64698;BME280;51124;53.394;-6.294;2024-01-06T10:19:06;101426.81;;;17.21;11.59
64698;BME280;51124;53.394;-6.294;2024-01-06T10:21:34;101428.18;;;17.00;11.26
64698;BME280;51124;53.394;-6.294;2024-01-06T10:24:02;101431.68;;;16.40;11.07
64698;BME280;51124;53.394;-6.294;2024-01-06T10:26:31;101431.97;;;16.91;10.92
64698;BME280;51124;53.394;-6.294;2024-01-06T10:28:58;101436.01;;;16.81;10.59
64698;BME280;51124;53.394;-6.294;2024-01-06T10:31:27;101437.07;;;16.14;10.65
64698;BME280;51124;53.394;-6.294;2024-01-06T10:33:54;101437.54;;;16.10;10.69
64698;BME280;51124;53.394;-6.294;2024-01-06T10:36:22;101438.06;;;16.08;10.51
64698;BME280;51124;53.394;-6.294;2024-01-06T10:38:49;101443.11;;;15.04;10.48
64698;BME280;51124;53.394;-6.294;2024-01-06T10:41:17;101445.81;;;16.11;10.55
64698;BME280;51124;53.394;-6.294;2024-01-06T10:43:46;101446.88;;;16.08;10.41
64698;BME280;51124;53.394;-6.294;2024-01-06T10:46:15;101446.04;;;15.65;10.49
64698;BME280;51124;53.394;-6.294;2024-01-06T10:48:42;101451.44;;;16.27;10.15
64698;BME280;51124;53.394;-6.294;2024-01-06T10:51:12;101459.23;;;16.74;10.09
64698;BME280;51124;53.394;-6.294;2024-01-06T10:53:40;101462.99;;;15.74;10.30
64698;BME280;51124;53.394;-6.294;2024-01-06T10:56:08;101468.17;;;15.83;10.28
64698;BME280;51124;53.394;-6.294;2024-01-06T10:58:36;101469.23;;;14.93;10.22
64698;BME280;51124;53.394;-6.294;2024-01-06T11:01:04;101468.81;;;14.90;10.13
64698;BME280;51124;53.394;-6.294;2024-01-06T11:03:31;101468.96;;;15.91;10.16
64698;BME280;51124;53.394;-6.294;2024-01-06T11:06:01;101469.14;;;15.79;10.08
64698;BME280;51124;53.394;-6.294;2024-01-06T11:08:28;101468.98;;;15.03;10.24
64698;BME280;51124;53.394;-6.294;2024-01-06T11:10:57;101473.76;;;15.17;10.03
64698;BME280;51124;53.394;-6.294;2024-01-06T11:13:25;101470.78;;;15.80;9.81
64698;BME280;51124;53.394;-6.294;2024-01-06T11:15:53;101475.45;;;15.90;9.99
64698;BME280;51124;53.394;-6.294;2024-01-06T11:18:38;101475.05;;;15.09;10.15
64698;BME280;51124;53.394;-6.294;2024-01-06T11:21:26;101476.85;;;16.14;9.90
64698;BME280;51124;53.394;-6.294;2024-01-06T11:23:23;101477.21;;;15.38;10.43
64698;BME280;51124;53.394;-6.294;2024-01-06T11:25:52;101479.49;;;15.40;9.97
64698;BME280;51124;53.394;-6.294;2024-01-06T11:28:20;101473.62;;;15.75;10.08
64698;BME280;51124;53.394;-6.294;2024-01-06T11:30:47;101476.54;;;15.34;9.90
64698;BME280;51124;53.394;-6.294;2024-01-06T11:33:22;101476.11;;;15.72;9.98
64698;BME280;51124;53.394;-6.294;2024-01-06T11:35:49;101485.86;;;15.32;9.86
64698;BME280;51124;53.394;-6.294;2024-01-06T11:38:17;101480.32;;;15.40;9.91
64698;BME280;51124;53.394;-6.294;2024-01-06T11:40:45;101484.12;;;16.23;9.90
64698;BME280;51124;53.394;-6.294;2024-01-06T11:43:13;101481.62;;;15.33;10.06
64698;BME280;51124;53.394;-6.294;2024-01-06T11:45:42;101484.18;;;16.40;9.84
64698;BME280;51124;53.394;-6.294;2024-01-06T11:48:11;101480.07;;;15.00;10.00
64698;BME280;51124;53.394;-6.294;2024-01-06T11:50:40;101480.23;;;16.09;9.78
64698;BME280;51124;53.394;-6.294;2024-01-06T11:53:09;101484.13;;;15.51;9.99
64698;BME280;51124;53.394;-6.294;2024-01-06T11:55:38;101484.80;;;15.49;9.99
64698;BME280;51124;53.394;-6.294;2024-01-06T11:58:05;101486.17;;;15.81;10.08
64698;BME280;51124;53.394;-6.294;2024-01-06T12:00:33;101485.37;;;15.97;9.95
64698;BME280;51124;53.394;-6.294;2024-01-06T12:03:01;101488.98;;;15.94;9.99
64698;BME280;51124;53.394;-6.294;2024-01-06T12:05:29;101490.67;;;14.94;10.11
64698;BME280;51124;53.394;-6.294;2024-01-06T12:07:57;101491.80;;;15.32;10.10
64698;BME280;51124;53.394;-6.294;2024-01-06T12:10:26;101492.34;;;15.40;10.18
64698;BME280;51124;53.394;-6.294;2024-01-06T12:12:58;101494.29;;;15.58;10.08
64698;BME280;51124;53.394;-6.294;2024-01-06T12:15:25;101493.14;;;13.87;10.18
64698;BME280;51124;53.394;-6.294;2024-01-06T12:17:53;101491.31;;;15.57;9.93
64698;BME280;51124;53.394;-6.294;2024-01-06T12:20:21;101489.76;;;15.22;10.01
64698;BME280;51124;53.394;-6.294;2024-01-06T12:22:48;101489.69;;;15.32;10.35
64698;BME280;51124;53.394;-6.294;2024-01-06T12:25:17;101489.59;;;15.02;10.58
64698;BME280;51124;53.394;-6.294;2024-01-06T12:27:46;101492.02;;;16.69;11.09
64698;BME280;51124;53.394;-6.294;2024-01-06T12:30:15;101491.60;;;17.17;11.33
64698;BME280;51124;53.394;-6.294;2024-01-06T12:32:44;101492.65;;;16.87;11.63
64698;BME280;51124;53.394;-6.294;2024-01-06T12:35:12;101492.56;;;16.16;11.51
64698;BME280;51124;53.394;-6.294;2024-01-06T12:37:39;101484.32;;;17.12;11.67
64698;BME280;51124;53.394;-6.294;2024-01-06T12:40:11;101490.64;;;18.31;11.85
64698;BME280;51124;53.394;-6.294;2024-01-06T12:42:38;101482.53;;;17.81;12.43